createdAt,value
2023-03-12T00:00:39.212Z,98751.28
2023-03-12T00:03:41.176Z,98743.31
2023-03-12T00:06:42.851Z,98734.63
2023-03-12T00:09:45.782Z,98742.06
2023-03-12T00:12:47.418Z,98736.16
2023-03-12T00:15:49.132Z,98717.69
2023-03-12T00:18:52.690Z,98711.81
2023-03-12T00:21:54.374Z,98722.34
2023-03-12T00:24:57.324Z,98715.41
2023-03-12T00:27:58.998Z,98713.28
2023-03-12T00:31:01.761Z,98702.47
2023-03-12T00:34:03.452Z,98707.63
2023-03-12T00:37:05.343Z,98721.66
2023-03-12T00:40:09.642Z,98718.91
2023-03-12T00:43:11.316Z,98699.44
2023-03-12T00:46:13.861Z,98702.22
2023-03-12T00:49:15.511Z,98710.81
2023-03-12T00:52:17.217Z,98725.19
2023-03-12T00:55:18.887Z,98730.97
2023-03-12T00:58:20.631Z,98720.03
2023-03-12T01:01:22.536Z,98735.25
2023-03-12T01:04:24.446Z,98736.38
2023-03-12T01:07:26.190Z,98744.00
2023-03-12T01:10:28.060Z,98729.28
2023-03-12T01:13:30.530Z,98747.25
2023-03-12T01:16:32.517Z,98747.59
2023-03-12T01:19:34.196Z,98733.84
2023-03-12T01:22:36.557Z,98746.44
2023-03-12T01:25:38.334Z,98750.09
2023-03-12T01:28:39.985Z,98747.31
2023-03-12T01:31:41.670Z,98744.59
2023-03-12T01:34:44.552Z,98755.13
2023-03-12T01:37:46.388Z,98745.00
2023-03-12T01:40:48.083Z,98740.31
2023-03-12T01:43:49.898Z,98746.78
2023-03-12T01:46:51.737Z,98735.28
2023-03-12T01:49:57.030Z,98733.28
2023-03-12T01:52:59.492Z,98720.03
2023-03-12T01:56:02.220Z,98725.47
2023-03-12T01:59:23.208Z,98722.44
2023-03-12T02:02:28.723Z,98732.84
2023-03-12T02:05:48.479Z,98722.50
2023-03-12T02:08:50.841Z,98720.09
2023-03-12T02:11:52.559Z,98706.75
2023-03-12T02:14:54.960Z,98709.13
2023-03-12T02:17:56.693Z,98699.44
2023-03-12T02:21:24.098Z,98697.00
2023-03-12T02:24:30.827Z,98698.69
2023-03-12T02:27:34.659Z,98695.66
2023-03-12T02:30:37.273Z,98690.31
2023-03-12T02:33:39.762Z,98680.91
2023-03-12T02:36:41.563Z,98670.59
2023-03-12T02:39:47.656Z,98675.47
2023-03-12T02:42:49.470Z,98644.97
2023-03-12T02:45:51.505Z,98629.06
2023-03-12T02:48:53.972Z,98626.25
2023-03-12T02:51:56.360Z,98641.63
2023-03-12T02:54:58.188Z,98626.66
2023-03-12T02:57:59.833Z,98639.94
2023-03-12T03:01:01.986Z,98662.25
2023-03-12T03:04:06.386Z,98654.22
2023-03-12T03:07:08.063Z,98674.28
2023-03-12T03:10:10.489Z,98659.25
2023-03-12T03:13:12.654Z,98652.53
2023-03-12T03:16:14.400Z,98659.66
2023-03-12T03:19:16.408Z,98658.66
2023-03-12T03:22:19.671Z,98651.13
2023-03-12T03:25:23.213Z,98660.94
2023-03-12T03:28:26.916Z,98667.06
2023-03-12T03:31:28.951Z,98664.22
2023-03-12T03:34:31.191Z,98661.94
2023-03-12T03:37:32.788Z,98671.81
2023-03-12T03:40:34.482Z,98656.50
2023-03-12T03:43:36.222Z,98660.84
2023-03-12T03:46:38.189Z,98649.16
2023-03-12T03:49:42.886Z,98638.94
2023-03-12T03:52:45.995Z,98637.44
2023-03-12T03:55:48.118Z,98640.31
2023-03-12T03:58:52.306Z,98647.94
2023-03-12T04:01:56.118Z,98644.94
2023-03-12T04:04:59.121Z,98640.19
2023-03-12T04:08:05.388Z,98640.09
2023-03-12T04:11:14.854Z,98661.59
2023-03-12T04:14:17.103Z,98638.63
2023-03-12T04:17:20.262Z,98647.50
2023-03-12T04:20:22.372Z,98633.44
2023-03-12T04:23:24.139Z,98641.75
2023-03-12T04:26:26.076Z,98629.16
2023-03-12T04:29:28.837Z,98618.16
2023-03-12T04:32:31.074Z,98617.91
2023-03-12T04:35:32.930Z,98616.50
2023-03-12T04:38:34.895Z,98607.81
2023-03-12T04:41:36.934Z,98620.28
2023-03-12T04:44:43.447Z,98623.28
2023-03-12T04:47:45.321Z,98635.66
2023-03-12T04:50:47.312Z,98640.34
2023-03-12T04:53:48.925Z,98643.25
2023-03-12T04:56:51.215Z,98638.19
2023-03-12T04:59:55.590Z,98639.88
2023-03-12T05:02:57.337Z,98623.94
2023-03-12T05:05:59.239Z,98622.19
2023-03-12T05:09:01.008Z,98639.22
2023-03-12T05:12:02.748Z,98647.53
2023-03-12T05:15:04.818Z,98642.19
2023-03-12T05:18:06.422Z,98630.88
2023-03-12T05:21:12.167Z,98623.44
2023-03-12T05:24:13.936Z,98608.59
2023-03-12T05:27:15.768Z,98621.38
2023-03-12T05:30:17.634Z,98642.06
2023-03-12T05:33:19.474Z,98631.25
2023-03-12T05:36:21.768Z,98631.66
2023-03-12T05:39:24.588Z,98644.34
2023-03-12T05:42:26.339Z,98648.78
2023-03-12T05:45:28.429Z,98626.28
2023-03-12T05:48:31.845Z,98632.59
2023-03-12T05:51:33.849Z,98632.00
2023-03-12T05:54:35.757Z,98636.16
2023-03-12T05:57:39.104Z,98636.22
2023-03-12T06:00:41.735Z,98638.59
2023-03-12T06:03:45.046Z,98623.69
2023-03-12T06:06:47.281Z,98624.50
2023-03-12T06:09:49.159Z,98626.09
2023-03-12T06:12:51.678Z,98636.97
2023-03-12T06:15:53.318Z,98636.16
2023-03-12T06:19:01.124Z,98640.19
2023-03-12T06:22:04.215Z,98649.25
2023-03-12T06:25:06.515Z,98639.59
2023-03-12T06:28:09.152Z,98646.53
2023-03-12T06:31:10.927Z,98668.59
2023-03-12T06:34:12.694Z,98653.59
2023-03-12T06:37:14.329Z,98660.13
2023-03-12T06:40:16.049Z,98660.81
2023-03-12T06:43:17.591Z,98660.31
2023-03-12T06:46:21.961Z,98671.78
2023-03-12T06:49:24.136Z,98660.78
2023-03-12T06:52:25.853Z,98665.03
2023-03-12T06:55:27.910Z,98659.06
2023-03-12T06:58:30.066Z,98673.72
2023-03-12T07:01:31.753Z,98679.88
2023-03-12T07:04:33.755Z,98670.56
2023-03-12T07:07:35.334Z,98665.25
2023-03-12T07:10:37.106Z,98682.31
2023-03-12T07:13:39.007Z,98685.00
2023-03-12T07:16:40.612Z,98691.13
2023-03-12T07:19:42.291Z,98683.56
2023-03-12T07:22:43.884Z,98685.00
2023-03-12T07:25:45.978Z,98679.63
2023-03-12T07:28:47.791Z,98691.81
2023-03-12T07:31:49.349Z,98685.50
2023-03-12T07:34:50.904Z,98684.38
2023-03-12T07:37:52.520Z,98693.06
2023-03-12T07:40:56.137Z,98694.00
2023-03-12T07:43:57.876Z,98708.06
2023-03-12T07:47:09.716Z,98705.56
2023-03-12T07:50:19.310Z,98697.94
2023-03-12T07:53:21.034Z,98702.88
2023-03-12T07:56:23.196Z,98698.75
2023-03-12T07:59:26.905Z,98702.56
2023-03-12T08:02:28.651Z,98714.13
2023-03-12T08:05:30.402Z,98711.25
2023-03-12T08:08:32.362Z,98711.25
2023-03-12T08:11:34.468Z,98714.25
2023-03-12T08:14:36.187Z,98711.44
2023-03-12T08:17:38.015Z,98732.94
2023-03-12T08:20:39.638Z,98722.47
2023-03-12T08:23:41.260Z,98740.34
2023-03-12T08:26:42.884Z,98741.47
2023-03-12T08:29:44.580Z,98750.31
2023-03-12T08:32:46.608Z,98746.19
2023-03-12T08:35:50.508Z,98749.50
2023-03-12T08:38:52.207Z,98752.06
2023-03-12T08:41:55.509Z,98763.44
2023-03-12T08:44:57.194Z,98768.34
2023-03-12T08:47:58.763Z,98776.91
2023-03-12T08:51:04.203Z,98777.53
2023-03-12T08:54:05.993Z,98766.13
2023-03-12T08:57:07.591Z,98782.91
2023-03-12T09:00:14.946Z,98788.78
2023-03-12T09:03:17.103Z,98783.84
2023-03-12T09:06:19.504Z,98787.31
2023-03-12T09:09:21.131Z,98789.69
2023-03-12T09:12:23.500Z,98789.97
2023-03-12T09:15:25.255Z,98782.38
2023-03-12T09:18:27.446Z,98791.72
2023-03-12T09:21:29.297Z,98794.91
2023-03-12T09:24:31.018Z,98800.72
2023-03-12T09:27:37.304Z,98782.84
2023-03-12T09:30:39.111Z,98780.47
2023-03-12T09:33:40.720Z,98788.03
2023-03-12T09:36:42.391Z,98773.78
2023-03-12T09:39:43.967Z,98790.47
2023-03-12T09:43:17.990Z,98803.22
2023-03-12T09:46:33.346Z,98801.22
2023-03-12T09:49:45.191Z,98801.75
2023-03-12T09:52:57.046Z,98805.84
2023-03-12T09:56:00.738Z,98814.53
2023-03-12T09:59:02.937Z,98816.47
2023-03-12T10:02:29.797Z,98819.75
2023-03-12T10:05:34.421Z,98820.50
2023-03-12T10:08:56.768Z,98822.88
2023-03-12T10:12:21.180Z,98828.97
2023-03-12T10:15:27.903Z,98835.16
2023-03-12T10:18:48.966Z,98818.44
2023-03-12T10:22:25.504Z,98818.09
2023-03-12T10:25:39.366Z,98826.28
2023-03-12T10:29:04.982Z,98820.13
2023-03-12T10:32:12.266Z,98824.78
2023-03-12T10:35:21.867Z,98836.59
2023-03-12T10:38:29.643Z,98831.94
2023-03-12T10:41:34.786Z,98844.31
2023-03-12T10:44:36.580Z,98839.00
2023-03-12T10:47:42.996Z,98843.66
2023-03-12T10:51:02.139Z,98844.09
2023-03-12T10:54:22.468Z,98836.66
2023-03-12T10:57:40.600Z,98860.78
2023-03-12T11:00:58.690Z,98854.56
2023-03-12T11:04:19.767Z,98836.75
2023-03-12T11:07:27.776Z,98840.78
2023-03-12T11:10:32.473Z,98834.50
2023-03-12T11:13:37.982Z,98844.56
2023-03-12T11:16:40.008Z,98839.94
2023-03-12T11:19:41.641Z,98838.47
2023-03-12T11:22:43.482Z,98851.78
2023-03-12T11:25:52.090Z,98838.13
2023-03-12T11:29:04.458Z,98849.50
2023-03-12T11:32:12.257Z,98853.81
2023-03-12T11:35:18.267Z,98864.06
2023-03-12T11:38:25.386Z,98869.47
2023-03-12T11:41:54.644Z,98849.88
2023-03-12T11:45:06.041Z,98855.59
2023-03-12T11:48:31.062Z,98852.31
2023-03-12T11:51:49.826Z,98840.94
2023-03-12T11:54:51.367Z,98848.84
2023-03-12T11:58:12.656Z,98856.72
2023-03-12T12:01:32.440Z,98854.00
2023-03-12T12:04:58.794Z,98855.66
2023-03-12T12:08:40.914Z,98836.94
2023-03-12T12:12:03.515Z,98845.16
2023-03-12T12:15:34.586Z,98835.91
2023-03-12T12:19:18.342Z,98836.84
2023-03-12T12:22:41.887Z,98850.38
2023-03-12T12:25:58.946Z,98857.88
2023-03-12T12:29:18.630Z,98851.22
2023-03-12T12:32:59.041Z,98843.88
2023-03-12T12:36:01.384Z,98844.34
2023-03-12T12:39:11.949Z,98845.34
2023-03-12T12:42:23.049Z,98846.47
2023-03-12T12:45:29.063Z,98842.53
2023-03-12T12:48:48.611Z,98816.22
2023-03-12T12:52:01.717Z,98831.25
2023-03-12T12:55:20.112Z,98837.56
2023-03-12T12:58:30.954Z,98847.38
2023-03-12T13:01:35.428Z,98844.44
2023-03-12T13:04:39.326Z,98839.03
2023-03-12T13:07:40.988Z,98835.28
2023-03-12T13:10:53.010Z,98833.72
2023-03-12T13:14:04.626Z,98830.97
2023-03-12T13:17:27.877Z,98833.63
2023-03-12T13:20:33.537Z,98822.84
2023-03-12T13:23:59.759Z,98820.00
2023-03-12T13:27:17.554Z,98815.63
2023-03-12T13:30:46.640Z,98818.81
2023-03-12T13:33:50.973Z,98813.50
2023-03-12T13:36:59.420Z,98810.66
2023-03-12T13:40:02.218Z,98799.31
2023-03-12T13:43:10.007Z,98794.00
2023-03-12T13:46:14.859Z,98791.53
2023-03-12T13:49:18.791Z,98787.41
2023-03-12T13:52:27.093Z,98796.84
2023-03-12T13:55:31.538Z,98799.06
2023-03-12T13:58:41.685Z,98779.19
2023-03-12T14:01:48.730Z,98791.66
2023-03-12T14:04:50.861Z,98780.50
2023-03-12T14:08:04.356Z,98778.41
2023-03-12T14:11:40.265Z,98782.22
2023-03-12T14:14:50.657Z,98782.69
2023-03-12T14:18:03.056Z,98779.03
2023-03-12T14:21:10.088Z,98783.72
2023-03-12T14:24:47.927Z,98796.34
2023-03-12T14:27:49.883Z,98786.59
2023-03-12T14:31:02.278Z,98787.06
2023-03-12T14:34:20.472Z,98777.00
2023-03-12T14:37:28.256Z,98791.63
2023-03-12T14:40:38.345Z,98786.44
2023-03-12T14:43:42.083Z,98806.81
2023-03-12T14:46:56.084Z,98806.06
2023-03-12T14:49:58.362Z,98801.03
2023-03-12T14:53:20.197Z,98803.78
2023-03-12T14:56:29.506Z,98795.72
2023-03-12T14:59:35.044Z,98805.69
2023-03-12T15:02:37.798Z,98807.16
2023-03-12T15:05:48.037Z,98812.94
2023-03-12T15:08:49.929Z,98796.94
2023-03-12T15:11:58.076Z,98807.50
2023-03-12T15:15:17.812Z,98793.34
2023-03-12T15:18:25.819Z,98806.63
2023-03-12T15:21:27.538Z,98799.91
2023-03-12T15:24:34.458Z,98797.13
2023-03-12T15:27:36.062Z,98787.84
2023-03-12T15:30:39.256Z,98790.19
2023-03-12T15:33:43.231Z,98779.97
2023-03-12T15:36:49.764Z,98786.16
2023-03-12T15:39:53.269Z,98789.91
2023-03-12T15:42:59.173Z,98797.00
2023-03-12T15:46:03.486Z,98791.41
2023-03-12T15:49:05.197Z,98786.69
2023-03-12T15:52:27.113Z,98796.94
2023-03-12T15:55:31.824Z,98787.13
2023-03-12T15:58:41.847Z,98780.03
2023-03-12T16:01:47.804Z,98796.13
2023-03-12T16:04:49.387Z,98809.69
2023-03-12T16:07:51.098Z,98799.44
2023-03-12T16:10:53.250Z,98788.41
2023-03-12T16:14:13.549Z,98792.38
2023-03-12T16:17:19.292Z,98792.94
2023-03-12T16:20:21.034Z,98788.75
2023-03-12T16:23:22.801Z,98787.88
2023-03-12T16:26:24.420Z,98765.78
2023-03-12T16:29:34.503Z,98756.75
2023-03-12T16:32:36.117Z,98761.28
2023-03-12T16:35:37.939Z,98762.25
2023-03-12T16:38:39.592Z,98761.78
2023-03-12T16:41:42.186Z,98744.03
2023-03-12T16:44:46.313Z,98757.88
2023-03-12T16:47:54.708Z,98748.75
2023-03-12T16:50:58.869Z,98743.91
2023-03-12T16:54:09.769Z,98746.84
2023-03-12T16:57:32.980Z,98746.50
2023-03-12T17:00:35.380Z,98732.94
2023-03-12T17:03:39.719Z,98745.53
2023-03-12T17:06:41.554Z,98736.97
2023-03-12T17:09:43.182Z,98748.25
2023-03-12T17:12:46.870Z,98751.66
2023-03-12T17:15:50.227Z,98763.50
2023-03-12T17:18:51.919Z,98772.44
2023-03-12T17:21:53.694Z,98781.25
2023-03-12T17:24:55.247Z,98782.28
2023-03-12T17:27:57.475Z,98786.66
2023-03-12T17:30:59.101Z,98774.78
2023-03-12T17:34:03.846Z,98801.44
2023-03-12T17:37:05.488Z,98795.94
2023-03-12T17:40:09.446Z,98801.91
2023-03-12T17:43:11.126Z,98801.44
2023-03-12T17:46:12.839Z,98798.66
2023-03-12T17:49:14.487Z,98785.50
2023-03-12T17:52:16.152Z,98809.19
2023-03-12T17:55:17.785Z,98809.53
2023-03-12T17:58:19.406Z,98814.69
2023-03-12T18:01:20.981Z,98817.09
2023-03-12T18:04:22.635Z,98821.63
2023-03-12T18:07:24.402Z,98822.19
2023-03-12T18:10:26.013Z,98823.63
2023-03-12T18:13:27.579Z,98815.75
2023-03-12T18:16:29.396Z,98831.22
2023-03-12T18:19:31.033Z,98822.31
2023-03-12T18:22:32.671Z,98827.63
2023-03-12T18:25:34.280Z,98831.47
2023-03-12T18:28:35.933Z,98826.72
2023-03-12T18:31:37.728Z,98832.13
2023-03-12T18:34:42.340Z,98830.13
2023-03-12T18:37:44.886Z,98830.97
2023-03-12T18:40:46.503Z,98823.13
2023-03-12T18:43:48.128Z,98838.44
2023-03-12T18:46:51.773Z,98836.31
2023-03-12T18:49:55.154Z,98832.47
2023-03-12T18:52:56.790Z,98830.78
2023-03-12T18:55:59.150Z,98839.69
2023-03-12T18:59:00.780Z,98823.59
2023-03-12T19:02:02.389Z,98810.06
2023-03-12T19:05:04.261Z,98822.09
2023-03-12T19:08:06.071Z,98824.25
2023-03-12T19:11:13.356Z,98832.59
2023-03-12T19:14:15.165Z,98829.75
2023-03-12T19:17:16.954Z,98822.66
2023-03-12T19:20:18.683Z,98820.63
2023-03-12T19:23:20.627Z,98831.44
2023-03-12T19:26:22.641Z,98837.09
2023-03-12T19:29:24.360Z,98839.81
2023-03-12T19:32:33.284Z,98844.13
2023-03-12T19:35:43.850Z,98846.53
2023-03-12T19:38:45.462Z,98839.69
2023-03-12T19:41:47.057Z,98856.94
2023-03-12T19:44:51.737Z,98838.44
2023-03-12T19:47:53.423Z,98849.50
2023-03-12T19:50:55.983Z,98827.19
2023-03-12T19:53:57.585Z,98842.63
2023-03-12T19:56:59.282Z,98846.91
2023-03-12T20:00:00.943Z,98848.72
2023-03-12T20:03:02.824Z,98836.34
2023-03-12T20:06:08.037Z,98819.31
2023-03-12T20:09:09.865Z,98844.66
2023-03-12T20:12:11.544Z,98839.59
2023-03-12T20:15:13.209Z,98837.34
2023-03-12T20:18:15.537Z,98839.38
2023-03-12T20:21:17.129Z,98846.56
2023-03-12T20:24:18.757Z,98838.47
2023-03-12T20:27:21.168Z,98847.69
2023-03-12T20:30:22.800Z,98852.44
2023-03-12T20:33:24.470Z,98844.13
2023-03-12T20:36:26.217Z,98838.91
2023-03-12T20:39:27.825Z,98850.63
2023-03-12T20:42:29.439Z,98843.22
2023-03-12T20:45:34.537Z,98831.03
2023-03-12T20:48:36.175Z,98837.09
2023-03-12T20:51:37.780Z,98824.16
2023-03-12T20:54:39.385Z,98829.13
2023-03-12T20:57:40.954Z,98807.25
2023-03-12T21:00:44.239Z,98819.19
2023-03-12T21:03:45.970Z,98812.50
2023-03-12T21:06:47.773Z,98812.28
2023-03-12T21:09:49.856Z,98815.47
2023-03-12T21:12:51.560Z,98812.41
2023-03-12T21:15:54.261Z,98811.75
2023-03-12T21:18:57.442Z,98820.63
2023-03-12T21:21:59.286Z,98817.03
2023-03-12T21:25:01.303Z,98820.75
2023-03-12T21:28:04.585Z,98820.97
2023-03-12T21:31:09.062Z,98831.38
2023-03-12T21:34:10.744Z,98812.19
2023-03-12T21:37:12.382Z,98807.81
2023-03-12T21:40:14.669Z,98812.78
2023-03-12T21:43:16.257Z,98820.53
2023-03-12T21:46:20.395Z,98805.09
2023-03-12T21:49:22.290Z,98806.03
2023-03-12T21:52:23.906Z,98790.34
2023-03-12T21:55:25.522Z,98783.38
2023-03-12T21:58:28.933Z,98775.38
2023-03-12T22:01:30.499Z,98769.06
2023-03-12T22:04:32.263Z,98748.56
2023-03-12T22:07:33.895Z,98752.94
2023-03-12T22:10:35.466Z,98738.53
2023-03-12T22:13:37.714Z,98745.41
2023-03-12T22:16:39.700Z,98733.22
2023-03-12T22:19:42.101Z,98741.78
2023-03-12T22:22:43.918Z,98738.88
2023-03-12T22:25:45.713Z,98719.81
2023-03-12T22:28:50.726Z,98724.34
2023-03-12T22:31:52.276Z,98723.09
2023-03-12T22:34:53.863Z,98725.69
2023-03-12T22:37:56.253Z,98715.53
2023-03-12T22:40:57.889Z,98713.50
2023-03-12T22:44:05.434Z,98711.91
2023-03-12T22:47:07.367Z,98706.41
2023-03-12T22:50:10.016Z,98711.59
2023-03-12T22:53:11.595Z,98708.09
2023-03-12T22:56:14.069Z,98705.63
2023-03-12T22:59:16.458Z,98692.66
2023-03-12T23:02:18.491Z,98695.13
2023-03-12T23:05:20.381Z,98701.50
2023-03-12T23:08:23.180Z,98683.84
2023-03-12T23:11:27.977Z,98657.25
2023-03-12T23:14:29.650Z,98676.53
2023-03-12T23:17:31.254Z,98672.06
2023-03-12T23:20:32.834Z,98665.66
2023-03-12T23:23:36.013Z,98670.31
2023-03-12T23:26:37.730Z,98663.28
2023-03-12T23:29:39.480Z,98660.81
2023-03-12T23:32:41.209Z,98647.53
2023-03-12T23:35:42.975Z,98632.84
2023-03-12T23:38:46.486Z,98656.03
2023-03-12T23:41:48.224Z,98655.84
2023-03-12T23:44:49.858Z,98640.78
2023-03-12T23:47:51.646Z,98648.91
2023-03-12T23:50:53.886Z,98646.00
2023-03-12T23:53:57.999Z,98653.09
2023-03-12T23:56:59.942Z,98648.03
